sensor_id;sensor_type;location;lat;lon;timestamp;P1;durP1;ratioP1;P2;durP2;ratioP2
25663;SDS011;13522;50.018;20.014;2023-05-10T00:01:27;25.05;;;11.50;;
25663;SDS011;13522;50.018;20.014;2023-05-10T00:04:39;21.95;;;11.03;;
25663;SDS011;13522;50.018;20.014;2023-05-10T00:07:52;21.00;;;10.85;;
25663;SDS011;13522;50.018;20.014;2023-05-10T00:11:04;20.03;;;10.80;;
25663;SDS011;13522;50.018;20.014;2023-05-10T00:14:16;21.73;;;10.70;;
25663;SDS011;13522;50.018;20.014;2023-05-10T00:17:29;17.33;;;9.73;;
25663;SDS011;13522;50.018;20.014;2023-05-10T00:20:41;20.40;;;9.58;;
25663;SDS011;13522;50.018;20.014;2023-05-10T00:23:54;20.48;;;9.05;;
25663;SDS011;13522;50.018;20.014;2023-05-10T00:27:06;22.00;;;10.83;;
25663;SDS011;13522;50.018;20.014;2023-05-10T00:30:19;16.78;;;10.20;;
25663;SDS011;13522;50.018;20.014;2023-05-10T00:33:32;23.45;;;10.38;;
25663;SDS011;13522;50.018;20.014;2023-05-10T00:36:45;21.23;;;8.70;;
25663;SDS011;13522;50.018;20.014;2023-05-10T00:39:58;20.88;;;9.63;;
25663;SDS011;13522;50.018;20.014;2023-05-10T00:43:10;18.35;;;10.00;;
25663;SDS011;13522;50.018;20.014;2023-05-10T00:46:24;16.25;;;9.75;;
25663;SDS011;13522;50.018;20.014;2023-05-10T00:49:37;23.88;;;10.28;;
25663;SDS011;13522;50.018;20.014;2023-05-10T00:52:50;21.15;;;9.95;;
25663;SDS011;13522;50.018;20.014;2023-05-10T00:56:02;17.98;;;10.65;;
25663;SDS011;13522;50.018;20.014;2023-05-10T00:59:15;18.63;;;9.10;;
25663;SDS011;13522;50.018;20.014;2023-05-10T01:02:28;14.83;;;9.23;;
25663;SDS011;13522;50.018;20.014;2023-05-10T01:05:41;19.13;;;9.40;;
25663;SDS011;13522;50.018;20.014;2023-05-10T01:08:55;14.18;;;8.95;;
25663;SDS011;13522;50.018;20.014;2023-05-10T01:12:07;18.13;;;9.53;;
25663;SDS011;13522;50.018;20.014;2023-05-10T01:15:20;20.38;;;9.83;;
25663;SDS011;13522;50.018;20.014;2023-05-10T01:18:33;13.28;;;8.40;;
25663;SDS011;13522;50.018;20.014;2023-05-10T01:21:50;20.28;;;9.03;;
25663;SDS011;13522;50.018;20.014;2023-05-10T01:25:25;14.13;;;8.75;;
25663;SDS011;13522;50.018;20.014;2023-05-10T01:29:16;22.20;;;9.60;;
25663;SDS011;13522;50.018;20.014;2023-05-10T01:32:54;18.23;;;8.70;;
25663;SDS011;13522;50.018;20.014;2023-05-10T01:36:12;20.40;;;9.28;;
25663;SDS011;13522;50.018;20.014;2023-05-10T01:39:32;12.88;;;7.70;;
25663;SDS011;13522;50.018;20.014;2023-05-10T01:42:49;17.05;;;7.93;;
25663;SDS011;13522;50.018;20.014;2023-05-10T01:46:07;13.38;;;8.40;;
25663;SDS011;13522;50.018;20.014;2023-05-10T01:49:25;15.43;;;8.20;;
25663;SDS011;13522;50.018;20.014;2023-05-10T01:52:41;14.50;;;8.73;;
25663;SDS011;13522;50.018;20.014;2023-05-10T01:55:58;17.00;;;9.20;;
25663;SDS011;13522;50.018;20.014;2023-05-10T01:59:15;14.35;;;8.18;;
25663;SDS011;13522;50.018;20.014;2023-05-10T02:02:30;12.50;;;8.28;;
25663;SDS011;13522;50.018;20.014;2023-05-10T02:05:47;14.55;;;8.98;;
25663;SDS011;13522;50.018;20.014;2023-05-10T02:09:01;17.45;;;9.50;;
25663;SDS011;13522;50.018;20.014;2023-05-10T02:12:15;19.10;;;10.33;;
25663;SDS011;13522;50.018;20.014;2023-05-10T02:15:28;16.68;;;8.85;;
25663;SDS011;13522;50.018;20.014;2023-05-10T02:18:42;20.48;;;9.13;;
25663;SDS011;13522;50.018;20.014;2023-05-10T02:21:56;15.60;;;9.20;;
25663;SDS011;13522;50.018;20.014;2023-05-10T02:25:09;15.53;;;9.70;;
25663;SDS011;13522;50.018;20.014;2023-05-10T02:28:24;17.38;;;10.05;;
25663;SDS011;13522;50.018;20.014;2023-05-10T02:31:38;23.13;;;11.53;;
25663;SDS011;13522;50.018;20.014;2023-05-10T02:34:52;21.15;;;9.90;;
25663;SDS011;13522;50.018;20.014;2023-05-10T02:38:04;16.78;;;9.25;;
25663;SDS011;13522;50.018;20.014;2023-05-10T02:41:17;25.70;;;10.38;;
25663;SDS011;13522;50.018;20.014;2023-05-10T02:44:31;20.52;;;11.43;;
25663;SDS011;13522;50.018;20.014;2023-05-10T02:47:45;18.58;;;11.60;;
25663;SDS011;13522;50.018;20.014;2023-05-10T02:51:02;17.63;;;11.63;;
25663;SDS011;13522;50.018;20.014;2023-05-10T02:54:19;17.18;;;10.30;;
25663;SDS011;13522;50.018;20.014;2023-05-10T02:57:33;27.20;;;9.78;;
25663;SDS011;13522;50.018;20.014;2023-05-10T03:00:49;14.70;;;8.90;;
25663;SDS011;13522;50.018;20.014;2023-05-10T03:04:02;16.68;;;9.15;;
25663;SDS011;13522;50.018;20.014;2023-05-10T03:07:14;20.73;;;10.20;;
25663;SDS011;13522;50.018;20.014;2023-05-10T03:10:27;14.10;;;8.95;;
25663;SDS011;13522;50.018;20.014;2023-05-10T03:13:44;16.88;;;8.43;;
25663;SDS011;13522;50.018;20.014;2023-05-10T03:17:04;17.83;;;8.25;;
25663;SDS011;13522;50.018;20.014;2023-05-10T03:20:22;16.55;;;8.75;;
25663;SDS011;13522;50.018;20.014;2023-05-10T03:23:42;18.85;;;8.83;;
25663;SDS011;13522;50.018;20.014;2023-05-10T03:26:59;18.03;;;9.48;;
25663;SDS011;13522;50.018;20.014;2023-05-10T03:30:13;18.23;;;8.75;;
25663;SDS011;13522;50.018;20.014;2023-05-10T03:33:26;13.63;;;8.45;;
25663;SDS011;13522;50.018;20.014;2023-05-10T03:36:39;21.35;;;11.85;;
25663;SDS011;13522;50.018;20.014;2023-05-10T03:39:51;26.05;;;9.78;;
25663;SDS011;13522;50.018;20.014;2023-05-10T03:43:05;16.10;;;8.70;;
25663;SDS011;13522;50.018;20.014;2023-05-10T03:46:18;22.48;;;7.58;;
25663;SDS011;13522;50.018;20.014;2023-05-10T03:49:30;16.25;;;7.08;;
25663;SDS011;13522;50.018;20.014;2023-05-10T03:52:43;14.13;;;7.58;;
25663;SDS011;13522;50.018;20.014;2023-05-10T03:55:57;12.53;;;6.75;;
25663;SDS011;13522;50.018;20.014;2023-05-10T03:59:10;14.63;;;6.95;;
25663;SDS011;13522;50.018;20.014;2023-05-10T04:02:22;13.88;;;7.60;;
25663;SDS011;13522;50.018;20.014;2023-05-10T04:05:36;11.93;;;6.03;;
25663;SDS011;13522;50.018;20.014;2023-05-10T04:08:49;12.98;;;6.80;;
25663;SDS011;13522;50.018;20.014;2023-05-10T04:12:04;15.05;;;6.15;;
25663;SDS011;13522;50.018;20.014;2023-05-10T04:15:17;12.73;;;6.40;;
25663;SDS011;13522;50.018;20.014;2023-05-10T04:18:29;14.18;;;6.55;;
25663;SDS011;13522;50.018;20.014;2023-05-10T04:21:41;13.35;;;7.15;;
25663;SDS011;13522;50.018;20.014;2023-05-10T04:24:54;13.10;;;6.28;;
25663;SDS011;13522;50.018;20.014;2023-05-10T04:28:06;15.50;;;6.20;;
25663;SDS011;13522;50.018;20.014;2023-05-10T04:31:18;14.73;;;6.45;;
25663;SDS011;13522;50.018;20.014;2023-05-10T04:34:31;14.78;;;6.50;;
25663;SDS011;13522;50.018;20.014;2023-05-10T04:37:43;17.40;;;7.15;;
25663;SDS011;13522;50.018;20.014;2023-05-10T04:41:03;13.70;;;6.63;;
25663;SDS011;13522;50.018;20.014;2023-05-10T04:44:17;18.38;;;6.88;;
25663;SDS011;13522;50.018;20.014;2023-05-10T04:47:29;17.55;;;6.25;;
25663;SDS011;13522;50.018;20.014;2023-05-10T04:50:42;12.83;;;6.45;;
25663;SDS011;13522;50.018;20.014;2023-05-10T04:53:54;15.75;;;6.20;;
25663;SDS011;13522;50.018;20.014;2023-05-10T04:57:08;15.85;;;6.03;;
25663;SDS011;13522;50.018;20.014;2023-05-10T05:00:20;11.48;;;6.35;;
25663;SDS011;13522;50.018;20.014;2023-05-10T05:03:33;15.78;;;5.73;;
25663;SDS011;13522;50.018;20.014;2023-05-10T05:06:46;9.25;;;5.58;;
25663;SDS011;13522;50.018;20.014;2023-05-10T05:09:59;14.33;;;6.15;;
25663;SDS011;13522;50.018;20.014;2023-05-10T05:13:13;15.35;;;6.08;;
25663;SDS011;13522;50.018;20.014;2023-05-10T05:16:30;14.13;;;5.75;;
25663;SDS011;13522;50.018;20.014;2023-05-10T05:19:42;10.93;;;5.83;;
25663;SDS011;13522;50.018;20.014;2023-05-10T05:22:54;13.78;;;6.50;;
25663;SDS011;13522;50.018;20.014;2023-05-10T05:26:06;16.05;;;6.15;;
25663;SDS011;13522;50.018;20.014;2023-05-10T05:29:19;11.05;;;5.08;;
25663;SDS011;13522;50.018;20.014;2023-05-10T05:32:31;10.30;;;5.78;;
25663;SDS011;13522;50.018;20.014;2023-05-10T05:35:43;18.50;;;6.65;;
25663;SDS011;13522;50.018;20.014;2023-05-10T05:38:56;13.35;;;5.98;;
25663;SDS011;13522;50.018;20.014;2023-05-10T05:42:08;12.38;;;6.05;;
25663;SDS011;13522;50.018;20.014;2023-05-10T05:45:23;17.78;;;6.25;;
25663;SDS011;13522;50.018;20.014;2023-05-10T05:48:35;48.85;;;23.20;;
25663;SDS011;13522;50.018;20.014;2023-05-10T05:51:48;73.98;;;37.38;;
25663;SDS011;13522;50.018;20.014;2023-05-10T05:55:00;84.05;;;45.80;;
25663;SDS011;13522;50.018;20.014;2023-05-10T05:58:13;17.70;;;7.75;;
25663;SDS011;13522;50.018;20.014;2023-05-10T06:01:25;78.15;;;44.23;;
25663;SDS011;13522;50.018;20.014;2023-05-10T06:04:38;67.55;;;36.10;;
25663;SDS011;13522;50.018;20.014;2023-05-10T06:07:50;16.93;;;10.40;;
25663;SDS011;13522;50.018;20.014;2023-05-10T06:11:03;44.55;;;27.65;;
25663;SDS011;13522;50.018;20.014;2023-05-10T06:14:15;15.28;;;10.65;;
25663;SDS011;13522;50.018;20.014;2023-05-10T06:17:28;12.20;;;7.90;;
25663;SDS011;13522;50.018;20.014;2023-05-10T06:20:42;13.28;;;6.08;;
25663;SDS011;13522;50.018;20.014;2023-05-10T06:23:54;31.38;;;17.35;;
25663;SDS011;13522;50.018;20.014;2023-05-10T06:27:07;13.83;;;6.53;;
25663;SDS011;13522;50.018;20.014;2023-05-10T06:30:20;11.23;;;5.25;;
25663;SDS011;13522;50.018;20.014;2023-05-10T06:33:33;10.30;;;5.43;;
25663;SDS011;13522;50.018;20.014;2023-05-10T06:36:46;10.00;;;4.50;;
25663;SDS011;13522;50.018;20.014;2023-05-10T06:39:58;10.85;;;4.75;;
25663;SDS011;13522;50.018;20.014;2023-05-10T06:43:11;9.03;;;5.00;;
25663;SDS011;13522;50.018;20.014;2023-05-10T06:46:23;11.95;;;4.88;;
25663;SDS011;13522;50.018;20.014;2023-05-10T06:49:35;10.45;;;4.48;;
25663;SDS011;13522;50.018;20.014;2023-05-10T06:52:47;16.23;;;7.88;;
25663;SDS011;13522;50.018;20.014;2023-05-10T06:55:59;13.58;;;6.43;;
25663;SDS011;13522;50.018;20.014;2023-05-10T06:59:13;8.83;;;5.05;;
25663;SDS011;13522;50.018;20.014;2023-05-10T07:02:26;18.18;;;4.60;;
25663;SDS011;13522;50.018;20.014;2023-05-10T07:05:38;13.15;;;4.40;;
25663;SDS011;13522;50.018;20.014;2023-05-10T07:08:50;8.75;;;4.28;;
25663;SDS011;13522;50.018;20.014;2023-05-10T07:12:03;11.23;;;4.45;;
25663;SDS011;13522;50.018;20.014;2023-05-10T07:15:18;9.98;;;4.30;;
25663;SDS011;13522;50.018;20.014;2023-05-10T07:18:32;14.50;;;4.73;;
25663;SDS011;13522;50.018;20.014;2023-05-10T07:21:45;22.23;;;12.48;;
25663;SDS011;13522;50.018;20.014;2023-05-10T07:24:57;23.70;;;12.60;;
25663;SDS011;13522;50.018;20.014;2023-05-10T07:28:10;10.30;;;4.43;;
25663;SDS011;13522;50.018;20.014;2023-05-10T07:31:22;10.88;;;4.05;;
25663;SDS011;13522;50.018;20.014;2023-05-10T07:34:35;8.30;;;3.75;;
25663;SDS011;13522;50.018;20.014;2023-05-10T07:37:49;6.85;;;3.93;;
25663;SDS011;13522;50.018;20.014;2023-05-10T07:41:02;7.08;;;4.13;;
25663;SDS011;13522;50.018;20.014;2023-05-10T07:44:15;11.48;;;3.93;;
25663;SDS011;13522;50.018;20.014;2023-05-10T07:47:27;11.48;;;3.73;;
25663;SDS011;13522;50.018;20.014;2023-05-10T07:50:40;47.15;;;30.95;;
25663;SDS011;13522;50.018;20.014;2023-05-10T07:53:52;56.43;;;31.53;;
25663;SDS011;13522;50.018;20.014;2023-05-10T07:57:03;14.63;;;4.90;;
25663;SDS011;13522;50.018;20.014;2023-05-10T08:00:18;7.83;;;3.65;;
25663;SDS011;13522;50.018;20.014;2023-05-10T08:03:31;8.98;;;2.90;;
25663;SDS011;13522;50.018;20.014;2023-05-10T08:06:43;9.28;;;3.78;;
25663;SDS011;13522;50.018;20.014;2023-05-10T08:09:55;7.33;;;3.18;;
25663;SDS011;13522;50.018;20.014;2023-05-10T08:13:07;8.98;;;3.03;;
25663;SDS011;13522;50.018;20.014;2023-05-10T08:16:20;6.35;;;2.75;;
25663;SDS011;13522;50.018;20.014;2023-05-10T08:19:33;3.48;;;2.28;;
25663;SDS011;13522;50.018;20.014;2023-05-10T08:22:46;6.93;;;2.90;;
25663;SDS011;13522;50.018;20.014;2023-05-10T08:25:58;3.90;;;2.80;;
25663;SDS011;13522;50.018;20.014;2023-05-10T08:29:11;8.73;;;3.03;;
25663;SDS011;13522;50.018;20.014;2023-05-10T08:32:23;49.95;;;40.53;;
25663;SDS011;13522;50.018;20.014;2023-05-10T08:35:36;3.50;;;2.58;;
25663;SDS011;13522;50.018;20.014;2023-05-10T08:38:51;3.93;;;2.73;;
25663;SDS011;13522;50.018;20.014;2023-05-10T08:42:04;5.48;;;3.30;;
25663;SDS011;13522;50.018;20.014;2023-05-10T08:45:19;5.10;;;2.70;;
25663;SDS011;13522;50.018;20.014;2023-05-10T08:48:33;6.58;;;2.35;;
25663;SDS011;13522;50.018;20.014;2023-05-10T08:51:50;9.70;;;5.38;;
25663;SDS011;13522;50.018;20.014;2023-05-10T08:58:15;8.78;;;6.05;;
25663;SDS011;13522;50.018;20.014;2023-05-10T09:01:27;25.58;;;15.75;;
25663;SDS011;13522;50.018;20.014;2023-05-10T09:04:41;7.58;;;4.15;;
25663;SDS011;13522;50.018;20.014;2023-05-10T09:07:54;8.50;;;2.90;;
25663;SDS011;13522;50.018;20.014;2023-05-10T09:11:06;3.10;;;2.35;;
25663;SDS011;13522;50.018;20.014;2023-05-10T09:14:19;4.68;;;2.10;;
25663;SDS011;13522;50.018;20.014;2023-05-10T09:17:33;2.83;;;1.88;;
25663;SDS011;13522;50.018;20.014;2023-05-10T09:20:46;5.40;;;1.85;;
25663;SDS011;13522;50.018;20.014;2023-05-10T09:23:59;2.80;;;2.48;;
25663;SDS011;13522;50.018;20.014;2023-05-10T09:27:16;6.60;;;2.35;;
25663;SDS011;13522;50.018;20.014;2023-05-10T09:30:36;4.98;;;3.33;;
25663;SDS011;13522;50.018;20.014;2023-05-10T09:33:48;10.65;;;6.03;;
25663;SDS011;13522;50.018;20.014;2023-05-10T09:37:02;7.25;;;1.95;;
25663;SDS011;13522;50.018;20.014;2023-05-10T09:40:15;3.43;;;1.83;;
25663;SDS011;13522;50.018;20.014;2023-05-10T09:43:29;4.55;;;2.33;;
25663;SDS011;13522;50.018;20.014;2023-05-10T09:46:51;3.13;;;1.80;;
25663;SDS011;13522;50.018;20.014;2023-05-10T09:50:03;5.03;;;2.38;;
25663;SDS011;13522;50.018;20.014;2023-05-10T09:53:17;2.80;;;1.93;;
25663;SDS011;13522;50.018;20.014;2023-05-10T09:56:35;6.28;;;2.20;;
25663;SDS011;13522;50.018;20.014;2023-05-10T09:59:48;3.18;;;2.20;;
25663;SDS011;13522;50.018;20.014;2023-05-10T10:03:02;4.03;;;1.68;;
25663;SDS011;13522;50.018;20.014;2023-05-10T10:06:19;3.65;;;1.83;;
25663;SDS011;13522;50.018;20.014;2023-05-10T10:09:34;13.00;;;8.95;;
25663;SDS011;13522;50.018;20.014;2023-05-10T10:12:46;5.28;;;2.50;;
25663;SDS011;13522;50.018;20.014;2023-05-10T10:15:58;2.98;;;1.80;;
25663;SDS011;13522;50.018;20.014;2023-05-10T10:19:13;3.15;;;1.88;;
25663;SDS011;13522;50.018;20.014;2023-05-10T10:22:25;2.80;;;1.60;;
25663;SDS011;13522;50.018;20.014;2023-05-10T10:25:37;6.68;;;1.75;;
25663;SDS011;13522;50.018;20.014;2023-05-10T10:28:56;2.63;;;1.70;;
25663;SDS011;13522;50.018;20.014;2023-05-10T10:32:21;6.23;;;2.15;;
25663;SDS011;13522;50.018;20.014;2023-05-10T10:35:35;5.93;;;1.80;;
25663;SDS011;13522;50.018;20.014;2023-05-10T10:39:00;6.43;;;4.18;;
25663;SDS011;13522;50.018;20.014;2023-05-10T10:42:17;3.68;;;1.80;;
25663;SDS011;13522;50.018;20.014;2023-05-10T10:49:27;5.78;;;1.60;;
25663;SDS011;13522;50.018;20.014;2023-05-10T10:52:41;5.13;;;1.80;;
25663;SDS011;13522;50.018;20.014;2023-05-10T10:56:02;5.20;;;1.80;;
25663;SDS011;13522;50.018;20.014;2023-05-10T10:59:27;4.45;;;2.10;;
25663;SDS011;13522;50.018;20.014;2023-05-10T11:02:47;2.45;;;1.80;;
25663;SDS011;13522;50.018;20.014;2023-05-10T11:06:01;12.13;;;7.38;;
25663;SDS011;13522;50.018;20.014;2023-05-10T11:09:13;12.20;;;8.05;;
25663;SDS011;13522;50.018;20.014;2023-05-10T11:12:26;3.35;;;2.05;;
25663;SDS011;13522;50.018;20.014;2023-05-10T11:15:39;3.65;;;1.80;;
25663;SDS011;13522;50.018;20.014;2023-05-10T11:19:01;4.35;;;2.78;;
25663;SDS011;13522;50.018;20.014;2023-05-10T11:22:15;4.80;;;2.15;;
25663;SDS011;13522;50.018;20.014;2023-05-10T11:25:27;4.55;;;2.20;;
25663;SDS011;13522;50.018;20.014;2023-05-10T11:28:42;3.03;;;2.00;;
25663;SDS011;13522;50.018;20.014;2023-05-10T11:31:58;5.73;;;1.90;;
25663;SDS011;13522;50.018;20.014;2023-05-10T11:38:24;3.60;;;1.85;;
25663;SDS011;13522;50.018;20.014;2023-05-10T11:41:37;4.08;;;1.75;;
25663;SDS011;13522;50.018;20.014;2023-05-10T11:44:49;3.45;;;1.80;;
25663;SDS011;13522;50.018;20.014;2023-05-10T11:48:02;4.28;;;1.60;;
25663;SDS011;13522;50.018;20.014;2023-05-10T11:51:15;2.98;;;1.70;;
25663;SDS011;13522;50.018;20.014;2023-05-10T11:54:30;7.70;;;2.08;;
25663;SDS011;13522;50.018;20.014;2023-05-10T11:57:43;2.85;;;1.63;;
25663;SDS011;13522;50.018;20.014;2023-05-10T12:00:55;5.00;;;2.20;;
25663;SDS011;13522;50.018;20.014;2023-05-10T12:04:08;4.20;;;2.00;;
25663;SDS011;13522;50.018;20.014;2023-05-10T12:07:21;3.23;;;1.83;;
25663;SDS011;13522;50.018;20.014;2023-05-10T12:10:34;5.95;;;1.70;;
25663;SDS011;13522;50.018;20.014;2023-05-10T12:13:46;8.78;;;1.83;;
25663;SDS011;13522;50.018;20.014;2023-05-10T12:16:59;3.35;;;1.50;;
25663;SDS011;13522;50.018;20.014;2023-05-10T12:20:15;3.65;;;1.65;;
25663;SDS011;13522;50.018;20.014;2023-05-10T12:23:29;3.60;;;1.90;;
25663;SDS011;13522;50.018;20.014;2023-05-10T12:26:42;6.75;;;2.00;;
25663;SDS011;13522;50.018;20.014;2023-05-10T12:30:12;3.75;;;2.00;;
25663;SDS011;13522;50.018;20.014;2023-05-10T12:33:36;3.33;;;2.45;;
25663;SDS011;13522;50.018;20.014;2023-05-10T12:36:51;3.13;;;1.80;;
25663;SDS011;13522;50.018;20.014;2023-05-10T12:40:05;3.88;;;2.35;;
25663;SDS011;13522;50.018;20.014;2023-05-10T12:43:20;6.30;;;2.40;;
25663;SDS011;13522;50.018;20.014;2023-05-10T12:46:33;3.33;;;2.35;;
25663;SDS011;13522;50.018;20.014;2023-05-10T12:49:45;5.90;;;2.30;;
25663;SDS011;13522;50.018;20.014;2023-05-10T12:52:57;2.20;;;1.60;;
25663;SDS011;13522;50.018;20.014;2023-05-10T12:56:09;6.10;;;2.53;;
25663;SDS011;13522;50.018;20.014;2023-05-10T12:59:22;5.38;;;2.20;;
25663;SDS011;13522;50.018;20.014;2023-05-10T13:02:34;3.23;;;2.08;;
25663;SDS011;13522;50.018;20.014;2023-05-10T13:05:47;3.43;;;1.70;;
25663;SDS011;13522;50.018;20.014;2023-05-10T13:09:00;2.95;;;2.00;;
25663;SDS011;13522;50.018;20.014;2023-05-10T13:12:15;4.55;;;1.80;;
25663;SDS011;13522;50.018;20.014;2023-05-10T13:15:28;5.23;;;1.70;;
25663;SDS011;13522;50.018;20.014;2023-05-10T13:18:40;3.83;;;2.00;;
25663;SDS011;13522;50.018;20.014;2023-05-10T13:21:54;3.10;;;2.03;;
25663;SDS011;13522;50.018;20.014;2023-05-10T13:25:07;4.30;;;1.93;;
25663;SDS011;13522;50.018;20.014;2023-05-10T13:28:20;6.65;;;2.00;;
25663;SDS011;13522;50.018;20.014;2023-05-10T13:31:34;7.05;;;2.20;;
25663;SDS011;13522;50.018;20.014;2023-05-10T13:34:50;3.90;;;1.75;;
25663;SDS011;13522;50.018;20.014;2023-05-10T13:38:04;9.05;;;1.93;;
25663;SDS011;13522;50.018;20.014;2023-05-10T13:41:18;4.80;;;1.73;;
25663;SDS011;13522;50.018;20.014;2023-05-10T13:44:31;7.38;;;1.80;;
25663;SDS011;13522;50.018;20.014;2023-05-10T13:47:43;9.83;;;2.40;;
25663;SDS011;13522;50.018;20.014;2023-05-10T13:50:56;3.08;;;1.90;;
25663;SDS011;13522;50.018;20.014;2023-05-10T13:54:10;3.85;;;1.75;;
25663;SDS011;13522;50.018;20.014;2023-05-10T13:57:24;5.70;;;2.13;;
25663;SDS011;13522;50.018;20.014;2023-05-10T14:00:40;4.53;;;1.88;;
25663;SDS011;13522;50.018;20.014;2023-05-10T14:03:53;7.20;;;1.80;;
25663;SDS011;13522;50.018;20.014;2023-05-10T14:07:06;2.73;;;1.68;;
25663;SDS011;13522;50.018;20.014;2023-05-10T14:10:19;6.13;;;2.08;;
25663;SDS011;13522;50.018;20.014;2023-05-10T14:13:31;4.75;;;2.15;;
25663;SDS011;13522;50.018;20.014;2023-05-10T14:16:44;34.58;;;20.88;;
25663;SDS011;13522;50.018;20.014;2023-05-10T14:19:57;3.73;;;2.05;;
25663;SDS011;13522;50.018;20.014;2023-05-10T14:23:11;4.95;;;1.73;;
25663;SDS011;13522;50.018;20.014;2023-05-10T14:26:26;3.70;;;2.55;;
25663;SDS011;13522;50.018;20.014;2023-05-10T14:29:39;3.63;;;2.28;;
25663;SDS011;13522;50.018;20.014;2023-05-10T14:32:52;5.90;;;2.20;;
25663;SDS011;13522;50.018;20.014;2023-05-10T14:36:06;3.75;;;2.20;;
25663;SDS011;13522;50.018;20.014;2023-05-10T14:39:20;5.30;;;2.05;;
25663;SDS011;13522;50.018;20.014;2023-05-10T14:42:34;3.93;;;2.00;;
25663;SDS011;13522;50.018;20.014;2023-05-10T14:45:48;3.25;;;1.78;;
25663;SDS011;13522;50.018;20.014;2023-05-10T14:49:01;5.83;;;1.95;;
25663;SDS011;13522;50.018;20.014;2023-05-10T14:52:15;4.00;;;1.60;;
25663;SDS011;13522;50.018;20.014;2023-05-10T14:55:27;6.65;;;2.10;;
25663;SDS011;13522;50.018;20.014;2023-05-10T14:58:41;2.38;;;1.65;;
25663;SDS011;13522;50.018;20.014;2023-05-10T15:01:54;3.75;;;1.58;;
25663;SDS011;13522;50.018;20.014;2023-05-10T15:05:08;3.70;;;1.70;;
25663;SDS011;13522;50.018;20.014;2023-05-10T15:08:22;3.28;;;1.78;;
25663;SDS011;13522;50.018;20.014;2023-05-10T15:11:35;7.18;;;2.08;;
25663;SDS011;13522;50.018;20.014;2023-05-10T15:14:48;6.25;;;1.90;;
25663;SDS011;13522;50.018;20.014;2023-05-10T15:18:02;3.55;;;1.65;;
25663;SDS011;13522;50.018;20.014;2023-05-10T15:21:17;3.17;;;1.87;;
25663;SDS011;13522;50.018;20.014;2023-05-10T15:24:30;4.03;;;2.08;;
25663;SDS011;13522;50.018;20.014;2023-05-10T15:27:44;2.58;;;1.70;;
25663;SDS011;13522;50.018;20.014;2023-05-10T15:30:57;5.40;;;1.80;;
25663;SDS011;13522;50.018;20.014;2023-05-10T15:34:13;5.98;;;2.15;;
25663;SDS011;13522;50.018;20.014;2023-05-10T15:37:27;5.70;;;2.35;;
25663;SDS011;13522;50.018;20.014;2023-05-10T15:40:40;4.28;;;2.30;;
25663;SDS011;13522;50.018;20.014;2023-05-10T15:43:53;3.43;;;1.83;;
25663;SDS011;13522;50.018;20.014;2023-05-10T15:47:06;6.50;;;3.15;;
25663;SDS011;13522;50.018;20.014;2023-05-10T15:50:18;2.33;;;1.55;;
25663;SDS011;13522;50.018;20.014;2023-05-10T15:53:33;4.68;;;2.50;;
25663;SDS011;13522;50.018;20.014;2023-05-10T15:56:49;5.98;;;1.95;;
25663;SDS011;13522;50.018;20.014;2023-05-10T16:00:04;3.20;;;1.80;;
25663;SDS011;13522;50.018;20.014;2023-05-10T16:03:22;4.08;;;2.55;;
25663;SDS011;13522;50.018;20.014;2023-05-10T16:06:37;5.23;;;2.20;;
25663;SDS011;13522;50.018;20.014;2023-05-10T16:09:54;2.48;;;1.70;;
25663;SDS011;13522;50.018;20.014;2023-05-10T16:13:07;6.28;;;2.20;;
25663;SDS011;13522;50.018;20.014;2023-05-10T16:16:25;3.93;;;2.18;;
25663;SDS011;13522;50.018;20.014;2023-05-10T16:19:43;2.68;;;1.78;;
25663;SDS011;13522;50.018;20.014;2023-05-10T16:22:56;5.80;;;1.70;;
25663;SDS011;13522;50.018;20.014;2023-05-10T16:26:13;5.07;;;2.07;;
25663;SDS011;13522;50.018;20.014;2023-05-10T16:29:29;4.05;;;2.08;;
25663;SDS011;13522;50.018;20.014;2023-05-10T16:32:43;7.95;;;1.90;;
25663;SDS011;13522;50.018;20.014;2023-05-10T16:35:55;6.10;;;2.13;;
25663;SDS011;13522;50.018;20.014;2023-05-10T16:39:09;3.75;;;1.95;;
25663;SDS011;13522;50.018;20.014;2023-05-10T16:42:22;5.28;;;2.35;;
25663;SDS011;13522;50.018;20.014;2023-05-10T16:45:35;6.00;;;2.28;;
25663;SDS011;13522;50.018;20.014;2023-05-10T16:48:48;4.05;;;2.10;;
25663;SDS011;13522;50.018;20.014;2023-05-10T16:52:03;4.15;;;2.28;;
25663;SDS011;13522;50.018;20.014;2023-05-10T16:55:16;6.00;;;2.18;;
25663;SDS011;13522;50.018;20.014;2023-05-10T16:58:30;4.45;;;2.15;;
25663;SDS011;13522;50.018;20.014;2023-05-10T17:01:43;6.58;;;2.40;;
25663;SDS011;13522;50.018;20.014;2023-05-10T17:04:56;4.08;;;2.33;;
25663;SDS011;13522;50.018;20.014;2023-05-10T17:08:13;5.48;;;2.20;;
25663;SDS011;13522;50.018;20.014;2023-05-10T17:11:31;4.20;;;1.98;;
25663;SDS011;13522;50.018;20.014;2023-05-10T17:14:47;4.40;;;2.60;;
25663;SDS011;13522;50.018;20.014;2023-05-10T17:18:00;4.48;;;2.40;;
25663;SDS011;13522;50.018;20.014;2023-05-10T17:21:17;6.40;;;2.58;;
25663;SDS011;13522;50.018;20.014;2023-05-10T17:24:35;6.73;;;2.40;;
25663;SDS011;13522;50.018;20.014;2023-05-10T17:27:48;5.98;;;2.60;;
25663;SDS011;13522;50.018;20.014;2023-05-10T17:31:01;4.08;;;2.20;;
25663;SDS011;13522;50.018;20.014;2023-05-10T17:34:15;19.75;;;10.75;;
25663;SDS011;13522;50.018;20.014;2023-05-10T17:37:29;30.28;;;17.08;;
25663;SDS011;13522;50.018;20.014;2023-05-10T17:40:43;8.28;;;3.65;;
25663;SDS011;13522;50.018;20.014;2023-05-10T17:43:56;8.10;;;3.40;;
25663;SDS011;13522;50.018;20.014;2023-05-10T17:47:09;5.63;;;2.70;;
25663;SDS011;13522;50.018;20.014;2023-05-10T17:50:22;6.50;;;2.28;;
25663;SDS011;13522;50.018;20.014;2023-05-10T17:56:50;10.50;;;6.85;;
25663;SDS011;13522;50.018;20.014;2023-05-10T18:00:11;10.08;;;5.50;;
25663;SDS011;13522;50.018;20.014;2023-05-10T18:03:29;7.65;;;3.35;;
25663;SDS011;13522;50.018;20.014;2023-05-10T18:06:44;4.20;;;2.88;;
25663;SDS011;13522;50.018;20.014;2023-05-10T18:09:58;10.90;;;7.28;;
25663;SDS011;13522;50.018;20.014;2023-05-10T18:13:16;6.73;;;3.78;;
25663;SDS011;13522;50.018;20.014;2023-05-10T18:16:29;7.95;;;3.03;;
25663;SDS011;13522;50.018;20.014;2023-05-10T18:19:41;10.30;;;4.00;;
25663;SDS011;13522;50.018;20.014;2023-05-10T18:22:57;76.38;;;48.58;;
25663;SDS011;13522;50.018;20.014;2023-05-10T18:26:10;66.53;;;35.25;;
25663;SDS011;13522;50.018;20.014;2023-05-10T18:29:23;11.30;;;4.95;;
25663;SDS011;13522;50.018;20.014;2023-05-10T18:32:41;10.80;;;3.75;;
25663;SDS011;13522;50.018;20.014;2023-05-10T18:35:55;4.60;;;3.00;;
25663;SDS011;13522;50.018;20.014;2023-05-10T18:39:08;10.45;;;3.53;;
25663;SDS011;13522;50.018;20.014;2023-05-10T18:42:27;6.18;;;3.38;;
25663;SDS011;13522;50.018;20.014;2023-05-10T18:45:46;10.73;;;4.30;;
25663;SDS011;13522;50.018;20.014;2023-05-10T18:49:02;10.20;;;3.78;;
25663;SDS011;13522;50.018;20.014;2023-05-10T18:52:15;8.78;;;3.60;;
25663;SDS011;13522;50.018;20.014;2023-05-10T18:55:44;8.78;;;3.55;;
25663;SDS011;13522;50.018;20.014;2023-05-10T18:59:08;8.10;;;3.95;;
25663;SDS011;13522;50.018;20.014;2023-05-10T19:02:21;10.08;;;4.20;;
25663;SDS011;13522;50.018;20.014;2023-05-10T19:05:34;10.50;;;4.03;;
25663;SDS011;13522;50.018;20.014;2023-05-10T19:08:48;11.63;;;4.48;;
25663;SDS011;13522;50.018;20.014;2023-05-10T19:12:10;8.78;;;4.15;;
25663;SDS011;13522;50.018;20.014;2023-05-10T19:15:29;8.53;;;3.75;;